AirNav   Phillips 66 Aviation Fuel
 
 736 users online  

CYTZ Toronto/City Centre Airport
Toronto, Ontario, Canada

GOING TO TORONTO?


FAA INFORMATION EFFECTIVE 26 APRIL 2018

Location

FAA Identifier: CYTZ
Lat/Long: 43-37-39.0000N / 079-23-46.0000W
43-37.650000N / 079-23.766667W
43.6275000 / -79.3961111
(estimated)
Elevation: 251 ft. / 77 m (estimated)
Variation: 11W ()
Time zone: UTC -4 (UTC -5 during Standard Time)
Zip code: 14174

Airport Operations

Airport use: Open to the public
Activation date: 04/2005
Control tower: no
ARTCC: TORONTO CENTER
FSS: LONDON FIC FLIGHT SERVICE STATION
Attendance: 
Segmented circle: no

Nearby radio navigation aids

VOR radial/distance  VOR name  Freq  Var
YYZr110/10.4TORONTO VOR/DME112.1510W

Airport Services

Runway Information

Runway 8/26

Dimensions: 4000 x 150 ft. / 1219 x 46 m
Surface: asphalt
RUNWAY 8  RUNWAY 26
Traffic pattern: leftleft

Runway 6/24

Dimensions: 3000 x 150 ft. / 914 x 46 m
Surface: asphalt
RUNWAY 6  RUNWAY 24
Traffic pattern: leftleft

Runway 15/33

Dimensions: 2780 x 150 ft. / 847 x 46 m
Surface: asphalt
RUNWAY 15  RUNWAY 33
Traffic pattern: leftleft

Airport Ownership and Management from official FAA records

Ownership: Privately-owned

Instrument Procedures

There are no published instrument procedures at CYTZ.

Some nearby airports with instrument procedures:

KIAG - Niagara Falls International Airport (37 nm SE)
0G0 - North Buffalo Suburban Airport (44 nm SE)
KBUF - Buffalo Niagara International Airport (50 nm SE)
9G3 - Akron Airport (54 nm SE)
9G0 - Buffalo Airfield (55 nm SE)
 
Loc | Ops | Rwys | IFR | FBO | Links
Com | Nav | Svcs | Stats | Notes

AirNav Hotels Sweepstakes
 
Aerial photo
No photo
 
Airport distance calculator
Flying to Toronto/City Centre Airport? Find the distance to fly.

From to CYTZ

Sunrise and sunset
Times for 21-May-2018
 Local
(UTC-4)
 Zulu
(UTC)
Morning civil twilight05:1409:14
Sunrise05:4809:48
Sunset20:4100:41
Evening civil twilight21:1501:15

Current date and time
Zulu (UTC)  22-May-2018 03:52:05
Local (UTC-4)  21-May-2018 23:52:05
 
METAR
CYTZ 220300Z AUTO VRB03KT 9SM OVC120 12/07 A3010 RMK SLP196
CYYZ 
11nm W 
220300Z 14002KT 15SM OVC100 18/04 A3010 RMK AS8 SLP196 DENSITY ALT 900FT
CYKZ 
14nm N 
220300Z 01004KT 15SM OVC088 17/08 A3012 RMK AC8 SLP201 DENSITY ALT 900FT
TAF
CYTZ 220138Z 2202/2302 VRB03KT P6SM OVC150 FM220300 06006KT P6SM OVC120 FM220500 05008KT P6SM -SHRA FEW025 OVC060 FM220800 05008KT 6SM -RA BR BKN012 OVC040 FM221000 05010KT 4SM -RA BR BKN008 OVC030 PROB40 2210/2212 OVC004 FM221200 04008KT 2SM -RA -DZ BR OVC004 FM221600 VRB03KT 5SM BR OVC006 FM221800 VRB03KT P6SM OVC012 FM222000 VRB03KT P6SM -SHRA BKN020 PROB30 2221/2223 2SM SHRA BR OVC008 FM230100 35010KT 6SM BR SCT008 OVC025 RMK FCST BASED ON AUTO OBS. NXT FCST BY 220800Z
CYYZ 
11nm W 
212038Z 2121/2224 15008KT P6SM FEW160 BKN210 FM212300 VRB03KT P6SM OVC160 FM220300 05006KT P6SM OVC120 FM220500 05006KT P6SM OVC060 TEMPO 2205/2209 P6SM -SHRA OVC040 FM220900 06008KT 4SM -RA BR BKN008 OVC030 FM221100 VRB03KT 2SM -RA -DZ OVC004 PROB30 2211/2214 OVC003 FM221500 VRB03KT 3SM -DZ BR OVC006 FM221700 30005KT P6SM SCT009 OVC012 FM222000 26005KT P6SM -SHRA BKN020 PROB30 2221/2224 2SM SHRA BR OVC008 RMK NXT FCST BY 220000Z
CYKZ 
14nm N 
211738Z 2118/2206 18008KT P6SM SCT230 FM212300 VRB03KT P6SM OVC180 FM220400 07006KT P6SM OVC120 RMK NXT FCST BY 220000Z
NOTAMs
Click for the latest NOTAMs
NOTAMs are issued by the DoD/FAA and will open in a separate window not controlled by AirNav.

 

 
 

Would you like to see your business listed on this page?

 If your business provides an interesting product or service to pilots, flight crews, aircraft, or users of the Toronto/City Centre Airport, you should consider listing it here.  To start the listing process, click on the button below
 
Add a business
 

Other Pages about Toronto/City Centre Airport

Update a link
 
Copyright © AirNav, LLC. All rights reserved. Privacy Policy  Contact